• Join FlightAware (Why Join?)
  • Login
  • US Flag 
04:40PM EST


 

Airport Tracker/Info


-or-


 

Live Flight TrackerFlight Track Log ✈ SWA1729 ✈ 01-May-2013 ✈ KHOU - KELP

Flight Track Log - Related Links

Times and Time Zones

All times are in EDT time to prevent confusion due to time zone crossing. See the SWA1729 flight status page for this flight to view local times or setup timezone preferences in your user account.

Time Position Orientation Groundspeed Altitude Reporting Facility
EDT Latitude Longitude Course Direction KTS MPH feet Rate Location/Type
09:54PM 29.6583 -95.2494 29° Northeast 233 268 1,800  Level Houston Center
09:55PM 29.6831 -95.3181 293° West 240 276 4,100 3,240 Climbing Houston Center
09:56PM 29.7064 -95.3969 289° West 258 297 8,400 3,360 Climbing Houston Center
09:57PM 29.7303 -95.4797 288° West 267 307 11,000 2,640 Climbing Houston Center
09:58PM 29.7594 -95.5842 288° West 330 380 13,800 2,820 Climbing Houston Center
09:59PM 29.7897 -95.6881 289° West 343 395 16,800 2,580 Climbing Houston Center
10:00PM 29.8086 -95.8019 281° West 368 423 19,100 2,220 Climbing Houston Center
10:01PM 29.8114 -95.9264 272° West 388 447 21,400 2,280 Climbing Houston Center
10:02PM 29.8169 -96.0739 273° West 397 457 23,800 2,100 Climbing Houston Center
10:03PM 29.8206 -96.2058 272° West 410 472 25,700 1,620 Climbing Houston Center
10:04PM 29.8242 -96.3397 272° West 418 481 27,200 1,560 Climbing Houston Center
10:06PM 29.8283 -96.4778 272° West 430 495 28,900 1,920 Climbing Houston Center
10:07PM 29.8317 -96.6144 272° West 430 495 31,200 1,800 Climbing Houston Center
10:08PM 29.8356 -96.7439 272° West 412 474 32,600 1,260 Climbing Houston Center
10:09PM 29.8397 -96.8789 272° West 420 483 33,800 1,140 Climbing Houston Center
10:10PM 29.8436 -97.0392 272° West 421 484 35,000 540 Climbing Houston Center
10:11PM 29.8456 -97.1744 271° West 423 487 35,000 420 Level Houston Center
10:12PM 29.8381 -97.3094 266° West 426 490 35,900 480 Climbing Houston Center
10:13PM 29.8214 -97.4417 262° West 420 483 36,000  Climbing Houston Center
10:14PM 29.8058 -97.5742 262° West 420 483 36,000  Level Houston Center
10:15PM 29.7878 -97.7050 261° West 418 481 36,000  Level Houston Center
10:16PM 29.7697 -97.8464 262° West 416 479 36,000  Level Houston Center
10:17PM 29.7511 -97.9878 261° West 416 479 36,000  Level Houston Center
10:18PM 29.7347 -98.1192 262° West 416 479 36,000  Level Houston Center
10:19PM 29.7158 -98.2492 261° West 415 478 36,000  Level Houston Center
10:20PM 29.6714 -98.3717 247° West 416 479 36,000  Level Houston Center
10:21PM 29.6203 -98.5033 246° West 428 493 36,000  Level Houston Center
10:22PM 29.5725 -98.6272 246° West 424 488 36,000  Level Houston Center
10:23PM 29.5181 -98.7442 242° Southwest 419 482 36,000 -180 Level Houston Center
10:24PM 29.4531 -98.8694 239° Southwest 426 490 35,700 -1,380 Descending Houston Center
10:25PM 29.3944 -98.9889 241° Southwest 429 494 33,300 -1,860 Descending Houston Center
10:26PM 29.3406 -99.1150 244° Southwest 443 510 32,000 -660 Descending Houston Center
10:27PM 29.2872 -99.2450 245° Southwest 451 519 32,000  Level Houston Center
10:28PM 29.2408 -99.3642 246° West 449 517 32,000  Level Houston Center
10:29PM 29.1914 -99.4933 246° West 444 511 32,000 -60 Level Houston Center
10:30PM 29.1378 -99.6214 244° Southwest 444 511 31,900  Descending Houston Center
10:31PM 29.1019 -99.7533 253° West 440 506 32,000  Climbing Houston Center
10:32PM 29.0803 -99.8897 260° West 436 502 32,000  Level Houston Center
10:33PM 29.0664 -100.0256 263° West 433 498 32,000  Level Houston Center
10:34PM 29.0678 -100.1897 271° West 431 496 32,000  Level Houston Center
10:35PM 29.0853 -100.3253 278° West 426 490 32,000  Level Houston Center
10:36PM 29.1211 -100.4553 288° West 428 493 32,000  Level Houston Center
10:37PM 29.1578 -100.5856 288° West 432 497 32,000  Level Houston Center
10:38PM 29.1947 -100.7172 288° West 435 501 32,000 -60 Level Houston Center
10:39PM 29.2314 -100.8494 288° West 435 501 31,900  Descending Houston Center
10:40PM 29.2719 -100.9789 290° West 432 497 32,000  Climbing Houston Center
10:41PM 29.3203 -101.1039 294° West 429 494 32,000  Level Houston Center
10:42PM 29.3756 -101.2283 297° West 438 504 32,000  Level Houston Center
10:43PM 29.4314 -101.3544 297° West 443 510 32,000 -60 Level Houston Center
10:44PM 29.4950 -101.4758 301° West 444 511 31,900  Descending Houston Center
10:45PM 29.5619 -101.5944 303° West 443 510 32,000 60 Climbing Houston Center
10:45PM 29.5833 -101.6319 303° West 446 513 32,000  Level Albuquerque Center
10:46PM 29.6258 -101.7161 300° West 443 510 32,000  Level Houston Center
10:47PM 29.6858 -101.8403 299° West 445 512 32,000  Level Houston Center
10:47PM 29.7033 -101.8803 297° West 444 511 32,000  Level Albuquerque Center
10:48PM 29.7625 -102.0056 299° West 446 513 32,000  Level Albuquerque Center
10:49PM 29.8422 -102.1158 310° West 450 518 32,000  Level Albuquerque Center
10:51PM 29.9381 -102.2486 310° West 449 517 32,000  Level Albuquerque Center
10:52PM 30.0178 -102.3606 309° West 449 517 32,000  Level Albuquerque Center
10:53PM 30.0975 -102.4728 309° West 451 519 32,000  Level Albuquerque Center
10:54PM 30.1769 -102.5853 309° West 451 519 32,000  Level Albuquerque Center
10:55PM 30.2533 -102.6956 309° West 443 510 32,000  Level Albuquerque Center
10:56PM 30.3322 -102.8083 309° West 446 513 32,000  Level Albuquerque Center
10:57PM 30.4103 -102.9169 310° West 442 509 32,000  Level Albuquerque Center
10:58PM 30.4883 -103.0292 309° West 445 512 32,000  Level Albuquerque Center
10:59PM 30.5647 -103.1403 309° West 441 507 32,000  Level Albuquerque Center
11:00PM 30.6433 -103.2511 310° West 441 507 32,000  Level Albuquerque Center
11:01PM 30.7203 -103.3619 309° West 441 507 32,000  Level Albuquerque Center
11:02PM 30.8111 -103.4947 309° West 438 504 32,000  Level Albuquerque Center
11:03PM 30.8864 -103.6053 308° West 436 502 32,000 -60 Level Albuquerque Center
11:04PM 30.9619 -103.7161 309° West 436 502 31,900  Descending Albuquerque Center
11:05PM 31.0128 -103.8267 298° West 438 504 32,000  Climbing Albuquerque Center
11:06PM 31.0550 -103.9583 291° West 436 502 32,000  Level Albuquerque Center
11:07PM 31.1058 -104.1183 290° West 439 505 32,000  Level Albuquerque Center
11:08PM 31.1506 -104.2511 292° West 441 507 32,000  Level Albuquerque Center
11:09PM 31.1939 -104.3839 291° West 441 507 32,000 -60 Level Albuquerque Center
11:10PM 31.2375 -104.5153 291° West 438 504 31,900  Descending Albuquerque Center
11:11PM 31.2783 -104.6419 291° West 425 489 32,000  Climbing Albuquerque Center
11:12PM 31.3172 -104.7639 290° West 409 471 32,000  Level Albuquerque Center
11:13PM 31.3572 -104.8861 291° West 406 467 32,000 -1,260 Level Albuquerque Center
11:14PM 31.4039 -105.0319 291° West 403 464 29,500 -2,580 Descending Albuquerque Center
11:15PM 31.4425 -105.1539 290° West 402 463 26,800 -2,640 Descending Albuquerque Center
11:16PM 31.4814 -105.2747 291° West 399 459 24,200 -2,640 Descending Albuquerque Center
11:17PM 31.5164 -105.4039 288° West 392 451 21,600 -2,580 Descending Albuquerque Center
11:18PM 31.5544 -105.5139 292° West 364 419 19,200 -2,400 Descending Albuquerque Center
11:19PM 31.5872 -105.6203 290° West 348 400 16,800 -2,400 Descending Albuquerque Center
11:20PM 31.6206 -105.7292 290° West 349 402 14,400 -2,340 Descending Albuquerque Center
11:21PM 31.6547 -105.8328 291° West 341 392 12,100 -2,100 Descending Albuquerque Center
11:22PM 31.6861 -105.9322 290° West 326 375 10,200 -1,620 Descending Albuquerque Center
11:23PM 31.7139 -106.0250 289° West 276 318 8,900 -1,560 Descending Albuquerque Center
11:24PM 31.7425 -106.1103 292° West 272 313 7,100 -1,620 Descending Albuquerque Center
11:25PM 31.7661 -106.1919 289° West 265 305 5,700 -1,080 Descending Albuquerque Center
11:26PM 31.7872 -106.2617 290° West 246 283 5,100 -540 Descending Albuquerque Center
11:26PM 31.7911 -106.2689 302° West 239 275 5,100 -300 Level Albuquerque Center
11:27PM 31.7981 -106.3089 282° West 129 148 4,800 -420 Descending Albuquerque Center
11:27PM 31.7983 -106.3144 273° West 143 165 4,700 -720 Descending Albuquerque Center
11:28PM 31.7997 -106.3533 272° West 119 137 4,100 -840 Descending Albuquerque Center
11:28PM 31.8014 -106.3658 279° West 132 152 3,900 -660 Descending Albuquerque Center
11:30PM 31.8000 -106.3667 270° West  Level FlightAware Approximate
11:37PM 31.8072 -106.3764 270° West  Level Estimated
11:38PM 31.8072 -106.3764 270° West  Level Estimated
11:39PM 31.8072 -106.3764 270° West  Level Estimated
11:40PM 31.8072 -106.3764 270° West  Level Estimated